createdAt,value
2019-01-10T00:00:42.745Z,995.75
2019-01-10T00:01:42.734Z,995.74
2019-01-10T00:02:42.724Z,995.74
2019-01-10T00:03:42.718Z,995.76
2019-01-10T00:04:42.702Z,995.77
2019-01-10T00:05:42.695Z,995.79
2019-01-10T00:06:42.680Z,995.76
2019-01-10T00:07:42.676Z,995.82
2019-01-10T00:08:42.662Z,995.83
2019-01-10T00:09:42.649Z,995.84
2019-01-10T00:10:42.638Z,995.83
2019-01-10T00:11:42.628Z,995.84
2019-01-10T00:12:42.618Z,995.89
2019-01-10T00:13:42.607Z,995.89
2019-01-10T00:14:42.598Z,995.89
2019-01-10T00:15:42.601Z,995.89
2019-01-10T00:16:42.574Z,995.89
2019-01-10T00:17:42.564Z,995.95
2019-01-10T00:18:42.551Z,995.97
2019-01-10T00:19:42.542Z,995.92
2019-01-10T00:20:42.537Z,995.97
2019-01-10T00:21:42.521Z,995.93
2019-01-10T00:22:42.513Z,995.93
2019-01-10T00:23:42.497Z,995.96
2019-01-10T00:24:42.494Z,995.92
2019-01-10T00:25:42.484Z,995.98
2019-01-10T00:26:42.465Z,995.95
2019-01-10T00:27:42.454Z,995.98
2019-01-10T00:28:42.444Z,996.03
2019-01-10T00:29:42.435Z,996.05
2019-01-10T00:30:42.423Z,996.05
2019-01-10T00:31:42.416Z,996.08
2019-01-10T00:32:42.403Z,996.04
2019-01-10T00:33:42.392Z,996.11
2019-01-10T00:34:42.382Z,996.19
2019-01-10T00:35:42.373Z,996.15
2019-01-10T00:36:42.358Z,996.15
2019-01-10T00:37:42.357Z,996.18
2019-01-10T00:38:42.337Z,996.21
2019-01-10T00:39:42.334Z,996.17
2019-01-10T00:40:42.319Z,996.16
2019-01-10T00:41:42.308Z,996.19
2019-01-10T00:42:49.230Z,996.23
2019-01-10T00:43:42.285Z,996.26
2019-01-10T00:44:42.276Z,996.25
2019-01-10T00:45:42.262Z,996.27
2019-01-10T00:46:42.256Z,996.25
2019-01-10T00:47:42.243Z,996.23
2019-01-10T00:48:42.235Z,996.22
2019-01-10T00:49:42.221Z,996.21
2019-01-10T00:50:42.303Z,996.22
2019-01-10T00:51:42.239Z,996.22
2019-01-10T00:52:42.188Z,996.23
2019-01-10T00:53:42.179Z,996.26
2019-01-10T00:54:42.169Z,996.25
2019-01-10T00:55:42.158Z,996.25
2019-01-10T00:56:42.145Z,996.28
2019-01-10T00:57:42.135Z,996.28
2019-01-10T00:58:42.124Z,996.32
2019-01-10T00:59:42.120Z,996.27
2019-01-10T01:00:42.106Z,996.35
2019-01-10T01:01:42.098Z,996.34
2019-01-10T01:02:42.082Z,996.40
2019-01-10T01:03:42.073Z,996.35
2019-01-10T01:04:42.061Z,996.42
2019-01-10T01:05:42.049Z,996.41
2019-01-10T01:06:42.037Z,996.43
2019-01-10T01:07:42.027Z,996.44
2019-01-10T01:08:42.017Z,996.45
2019-01-10T01:09:42.012Z,996.45
2019-01-10T01:10:41.999Z,996.44
2019-01-10T01:11:41.978Z,996.42
2019-01-10T01:12:41.976Z,996.47
2019-01-10T01:13:41.966Z,996.49
2019-01-10T01:14:41.952Z,996.57
2019-01-10T01:15:41.944Z,996.55
2019-01-10T01:16:41.930Z,996.55
2019-01-10T01:17:41.922Z,996.58
2019-01-10T01:18:41.915Z,996.63
2019-01-10T01:19:41.900Z,996.62
2019-01-10T01:20:41.891Z,996.63
2019-01-10T01:21:41.880Z,996.66
2019-01-10T01:22:41.867Z,996.64
2019-01-10T01:23:41.862Z,996.65
2019-01-10T01:24:41.846Z,996.66
2019-01-10T01:25:41.839Z,996.72
2019-01-10T01:26:41.828Z,996.70
2019-01-10T01:27:41.818Z,996.68
2019-01-10T01:28:41.805Z,996.69
2019-01-10T01:29:41.794Z,996.68
2019-01-10T01:30:41.783Z,996.69
2019-01-10T01:31:41.771Z,996.73
2019-01-10T01:32:41.764Z,996.72
2019-01-10T01:33:41.750Z,996.75
2019-01-10T01:34:41.740Z,996.77
2019-01-10T01:35:41.727Z,996.76
2019-01-10T01:36:41.718Z,996.80
2019-01-10T01:37:41.706Z,996.80
2019-01-10T01:38:41.700Z,996.77
2019-01-10T01:39:41.689Z,996.75
2019-01-10T01:40:41.672Z,996.79
2019-01-10T01:41:41.667Z,996.81
2019-01-10T01:42:41.654Z,996.83
2019-01-10T01:43:41.642Z,996.83
2019-01-10T01:44:41.632Z,996.85
2019-01-10T01:45:41.621Z,996.88
2019-01-10T01:46:41.617Z,996.89
2019-01-10T01:47:41.603Z,996.91
2019-01-10T01:48:41.591Z,996.88
2019-01-10T01:49:41.580Z,996.87
2019-01-10T01:50:41.569Z,996.90
2019-01-10T01:51:41.555Z,996.92
2019-01-10T01:52:41.544Z,996.94
2019-01-10T01:53:41.535Z,996.92
2019-01-10T01:54:41.528Z,996.98
2019-01-10T01:55:41.518Z,996.93
2019-01-10T01:56:41.509Z,996.92
2019-01-10T01:57:41.494Z,996.95
2019-01-10T01:58:41.482Z,996.98
2019-01-10T01:59:41.476Z,996.98
2019-01-10T02:00:41.459Z,997.01
2019-01-10T02:01:41.450Z,997.03
2019-01-10T02:02:41.439Z,997.00
2019-01-10T02:03:41.429Z,997.00
2019-01-10T02:04:41.418Z,997.02
2019-01-10T02:05:41.411Z,997.02
2019-01-10T02:06:41.396Z,997.06
2019-01-10T02:07:41.382Z,997.08
2019-01-10T02:08:41.374Z,997.08
2019-01-10T02:09:41.372Z,997.08
2019-01-10T02:10:41.351Z,997.08
2019-01-10T02:11:41.342Z,997.12
2019-01-10T02:12:41.333Z,997.17
2019-01-10T02:13:41.323Z,997.13
2019-01-10T02:14:41.310Z,997.16
2019-01-10T02:15:41.300Z,997.20
2019-01-10T02:16:41.288Z,997.21
2019-01-10T02:17:48.789Z,997.22
2019-01-10T02:18:41.275Z,997.23
2019-01-10T02:19:41.257Z,997.25
2019-01-10T02:20:41.246Z,997.28
2019-01-10T02:21:41.234Z,997.24
2019-01-10T02:22:41.225Z,997.21
2019-01-10T02:23:41.217Z,997.26
2019-01-10T02:24:41.205Z,997.24
2019-01-10T02:25:41.194Z,997.24
2019-01-10T02:26:41.181Z,997.24
2019-01-10T02:27:41.174Z,997.24
2019-01-10T02:28:41.157Z,997.27
2019-01-10T02:29:41.151Z,997.33
2019-01-10T02:30:42.078Z,997.34
2019-01-10T02:31:41.129Z,997.31
2019-01-10T02:32:41.118Z,997.34
2019-01-10T02:33:41.106Z,997.29
2019-01-10T02:34:41.094Z,997.33
2019-01-10T02:35:41.082Z,997.29
2019-01-10T02:36:41.078Z,997.33
2019-01-10T02:37:41.064Z,997.34
2019-01-10T02:38:41.052Z,997.35
2019-01-10T02:39:41.044Z,997.34
2019-01-10T02:40:41.033Z,997.38
2019-01-10T02:41:41.022Z,997.38
2019-01-10T02:42:41.010Z,997.40
2019-01-10T02:43:40.999Z,997.40
2019-01-10T02:44:40.989Z,997.40
2019-01-10T02:45:40.978Z,997.41
2019-01-10T02:46:40.970Z,997.41
2019-01-10T02:47:40.957Z,997.38
2019-01-10T02:48:40.947Z,997.34
2019-01-10T02:49:40.935Z,997.37
2019-01-10T02:50:40.927Z,997.38
2019-01-10T02:51:40.919Z,997.36
2019-01-10T02:52:40.918Z,997.44
2019-01-10T02:53:40.893Z,997.40
2019-01-10T02:54:40.882Z,997.42
2019-01-10T02:55:40.873Z,997.39
2019-01-10T02:56:40.859Z,997.42
2019-01-10T02:57:40.850Z,997.45
2019-01-10T02:58:40.838Z,997.41
2019-01-10T02:59:40.828Z,997.45
2019-01-10T03:00:40.819Z,997.47
2019-01-10T03:01:40.809Z,997.46
2019-01-10T03:02:40.794Z,997.43
2019-01-10T03:03:40.784Z,997.45
2019-01-10T03:04:40.776Z,997.45
2019-01-10T03:05:40.765Z,997.43
2019-01-10T03:06:40.755Z,997.46
2019-01-10T03:07:40.740Z,997.47
2019-01-10T03:08:40.732Z,997.45
2019-01-10T03:09:40.720Z,997.47
2019-01-10T03:10:40.710Z,997.46
2019-01-10T03:11:40.702Z,997.43
2019-01-10T03:12:40.688Z,997.45
2019-01-10T03:13:40.680Z,997.41
2019-01-10T03:14:40.666Z,997.41
2019-01-10T03:15:40.656Z,997.41
2019-01-10T03:16:40.646Z,997.38
2019-01-10T03:17:40.634Z,997.41
2019-01-10T03:18:40.628Z,997.45
2019-01-10T03:19:40.613Z,997.42
2019-01-10T03:20:40.612Z,997.43
2019-01-10T03:21:40.592Z,997.43
2019-01-10T03:22:40.582Z,997.47
2019-01-10T03:23:40.570Z,997.43
2019-01-10T03:24:40.560Z,997.44
2019-01-10T03:25:40.549Z,997.49
2019-01-10T03:26:40.538Z,997.45
2019-01-10T03:27:40.528Z,997.43
2019-01-10T03:28:40.519Z,997.45
2019-01-10T03:29:40.505Z,997.44
2019-01-10T03:30:40.494Z,997.48
2019-01-10T03:31:40.487Z,997.44
2019-01-10T03:32:40.476Z,997.44
2019-01-10T03:33:40.464Z,997.43
2019-01-10T03:34:40.452Z,997.50
2019-01-10T03:35:40.441Z,997.44
2019-01-10T03:36:40.440Z,997.46
2019-01-10T03:37:40.420Z,997.45
2019-01-10T03:38:40.412Z,997.46
2019-01-10T03:39:40.443Z,997.41
2019-01-10T03:40:40.386Z,997.39
2019-01-10T03:41:40.378Z,997.43
2019-01-10T03:42:40.365Z,997.43
2019-01-10T03:43:47.032Z,997.38
2019-01-10T03:44:40.346Z,997.37
2019-01-10T03:45:40.338Z,997.32
2019-01-10T03:46:40.322Z,997.39
2019-01-10T03:47:40.314Z,997.38
2019-01-10T03:48:40.300Z,997.36
2019-01-10T03:49:40.290Z,997.36
2019-01-10T03:50:40.284Z,997.35
2019-01-10T03:51:40.271Z,997.33
2019-01-10T03:52:40.262Z,997.32
2019-01-10T03:53:40.247Z,997.32
2019-01-10T03:54:40.240Z,997.34
2019-01-10T03:55:40.231Z,997.32
2019-01-10T03:56:40.218Z,997.30
2019-01-10T03:57:40.206Z,997.35
2019-01-10T03:58:40.197Z,997.33
2019-01-10T03:59:40.190Z,997.34
2019-01-10T04:00:40.172Z,997.31
2019-01-10T04:01:40.163Z,997.35
2019-01-10T04:02:40.151Z,997.33
2019-01-10T04:03:40.142Z,997.35
2019-01-10T04:04:40.132Z,997.36
2019-01-10T04:05:40.121Z,997.37
2019-01-10T04:06:40.106Z,997.39
2019-01-10T04:07:40.098Z,997.39
2019-01-10T04:08:40.186Z,997.37
2019-01-10T04:09:40.077Z,997.38
2019-01-10T04:10:40.066Z,997.41
2019-01-10T04:11:40.058Z,997.38
2019-01-10T04:12:40.043Z,997.42
2019-01-10T04:13:40.036Z,997.48
2019-01-10T04:14:40.022Z,997.42
2019-01-10T04:15:40.015Z,997.43
2019-01-10T04:16:40.005Z,997.45
2019-01-10T04:17:39.994Z,997.40
2019-01-10T04:18:39.979Z,997.44
2019-01-10T04:19:39.979Z,997.42
2019-01-10T04:20:39.961Z,997.43
2019-01-10T04:21:39.950Z,997.43
2019-01-10T04:22:39.936Z,997.42
2019-01-10T04:23:39.927Z,997.43
2019-01-10T04:24:39.919Z,997.46
2019-01-10T04:25:39.904Z,997.44
2019-01-10T04:26:39.897Z,997.43
2019-01-10T04:27:39.884Z,997.47
2019-01-10T04:28:39.875Z,997.43
2019-01-10T04:29:39.862Z,997.50
2019-01-10T04:30:39.851Z,997.43
2019-01-10T04:31:39.846Z,997.47
2019-01-10T04:32:39.829Z,997.49
2019-01-10T04:33:39.819Z,997.47
2019-01-10T04:34:39.810Z,997.47
2019-01-10T04:35:39.798Z,997.50
2019-01-10T04:36:39.787Z,997.47
2019-01-10T04:37:39.779Z,997.51
2019-01-10T04:38:39.765Z,997.52
2019-01-10T04:39:39.759Z,997.53
2019-01-10T04:40:39.748Z,997.56
2019-01-10T04:41:39.738Z,997.56
2019-01-10T04:42:39.724Z,997.61
2019-01-10T04:43:39.714Z,997.59
2019-01-10T04:44:39.702Z,997.60
2019-01-10T04:45:39.692Z,997.60
2019-01-10T04:46:39.693Z,997.67
2019-01-10T04:47:39.670Z,997.64
2019-01-10T04:48:39.661Z,997.71
2019-01-10T04:49:39.650Z,997.67
2019-01-10T04:50:39.641Z,997.72
2019-01-10T04:51:39.627Z,997.73
2019-01-10T04:52:39.624Z,997.74
2019-01-10T04:53:39.618Z,997.79
2019-01-10T04:54:39.601Z,997.77
2019-01-10T04:55:39.584Z,997.81
2019-01-10T04:56:39.573Z,997.82
2019-01-10T04:57:39.564Z,997.77
2019-01-10T04:58:39.553Z,997.76
2019-01-10T04:59:39.542Z,997.81
2019-01-10T05:00:39.535Z,997.84
2019-01-10T05:01:39.520Z,997.85
2019-01-10T05:02:39.511Z,997.85
2019-01-10T05:03:39.507Z,997.88
2019-01-10T05:04:39.486Z,997.88
2019-01-10T05:05:39.481Z,997.91
2019-01-10T05:06:39.467Z,997.95
2019-01-10T05:07:39.456Z,997.95
2019-01-10T05:08:39.443Z,997.97
2019-01-10T05:09:39.431Z,997.95
2019-01-10T05:10:39.426Z,997.97
2019-01-10T05:11:39.409Z,997.93
2019-01-10T05:12:41.649Z,997.90
2019-01-10T05:13:39.389Z,997.93
2019-01-10T05:14:39.375Z,997.91
2019-01-10T05:15:39.370Z,997.89
2019-01-10T05:16:39.356Z,997.93
2019-01-10T05:17:39.348Z,997.94
2019-01-10T05:18:39.333Z,997.91
2019-01-10T05:19:39.323Z,997.90
2019-01-10T05:20:39.312Z,997.95
2019-01-10T05:21:39.309Z,997.94
2019-01-10T05:22:39.289Z,997.92
2019-01-10T05:23:39.278Z,997.87
2019-01-10T05:24:39.266Z,997.96
2019-01-10T05:25:39.256Z,997.94
2019-01-10T05:26:39.245Z,997.96
2019-01-10T05:27:39.235Z,997.97
2019-01-10T05:28:39.223Z,997.95
2019-01-10T05:29:39.212Z,997.96
2019-01-10T05:30:39.199Z,997.98
2019-01-10T05:31:39.190Z,998.03
2019-01-10T05:32:39.178Z,998.03
2019-01-10T05:33:39.167Z,998.06
2019-01-10T05:34:39.157Z,998.06
2019-01-10T05:35:39.148Z,998.06
2019-01-10T05:36:39.137Z,998.02
2019-01-10T05:37:39.126Z,998.07
2019-01-10T05:38:39.112Z,998.03
2019-01-10T05:39:47.380Z,998.03
2019-01-10T05:40:39.095Z,997.99
2019-01-10T05:41:39.185Z,998.03
2019-01-10T05:42:39.070Z,998.08
2019-01-10T05:43:39.067Z,998.05
2019-01-10T05:44:39.052Z,998.05
2019-01-10T05:45:39.037Z,998.01
2019-01-10T05:46:48.142Z,998.03
2019-01-10T05:47:39.015Z,998.00
2019-01-10T05:48:39.009Z,998.04
2019-01-10T05:49:38.998Z,998.09
2019-01-10T05:50:38.985Z,998.11
2019-01-10T05:51:38.973Z,998.11
2019-01-10T05:52:38.964Z,998.13
2019-01-10T05:53:38.951Z,998.16
2019-01-10T05:54:38.939Z,998.13
2019-01-10T05:55:38.933Z,998.13
2019-01-10T05:56:38.918Z,998.11
2019-01-10T05:57:38.913Z,998.13
2019-01-10T05:58:38.897Z,998.14
2019-01-10T05:59:38.888Z,998.21
2019-01-10T06:00:38.882Z,998.19
2019-01-10T06:01:38.866Z,998.20
2019-01-10T06:02:38.853Z,998.17
2019-01-10T06:03:38.846Z,998.16
2019-01-10T06:04:38.824Z,998.19
2019-01-10T06:05:38.820Z,998.18
2019-01-10T06:06:38.829Z,998.18
2019-01-10T06:07:38.799Z,998.25
2019-01-10T06:08:38.789Z,998.23
2019-01-10T06:09:38.782Z,998.24
2019-01-10T06:10:38.768Z,998.27
2019-01-10T06:11:38.759Z,998.27
2019-01-10T06:12:38.745Z,998.27
2019-01-10T06:13:38.736Z,998.27
2019-01-10T06:14:38.722Z,998.24
2019-01-10T06:15:38.718Z,998.26
2019-01-10T06:16:38.704Z,998.31
2019-01-10T06:17:38.700Z,998.32
2019-01-10T06:18:38.681Z,998.34
2019-01-10T06:19:38.670Z,998.33
2019-01-10T06:20:38.673Z,998.38
2019-01-10T06:21:38.649Z,998.42
2019-01-10T06:22:38.641Z,998.38
2019-01-10T06:23:38.627Z,998.38
2019-01-10T06:24:38.621Z,998.39
2019-01-10T06:25:38.660Z,998.36
2019-01-10T06:26:38.595Z,998.33
2019-01-10T06:27:38.585Z,998.33
2019-01-10T06:28:38.574Z,998.37
2019-01-10T06:29:38.565Z,998.35
2019-01-10T06:30:38.561Z,998.36
2019-01-10T06:31:38.541Z,998.39
2019-01-10T06:32:38.532Z,998.37
2019-01-10T06:33:38.520Z,998.42
2019-01-10T06:34:38.506Z,998.39
2019-01-10T06:35:38.498Z,998.45
2019-01-10T06:36:38.486Z,998.46
2019-01-10T06:37:38.478Z,998.47
2019-01-10T06:38:38.469Z,998.51
2019-01-10T06:39:38.460Z,998.48
2019-01-10T06:40:38.499Z,998.54
2019-01-10T06:41:38.431Z,998.49
2019-01-10T06:42:38.420Z,998.48
2019-01-10T06:43:38.411Z,998.50
2019-01-10T06:44:44.587Z,998.50
2019-01-10T06:45:38.392Z,998.51
2019-01-10T06:46:38.386Z,998.50
2019-01-10T06:47:38.370Z,998.49
2019-01-10T06:48:38.360Z,998.52
2019-01-10T06:49:38.351Z,998.54
2019-01-10T06:50:39.173Z,998.55
2019-01-10T06:51:38.326Z,998.58
2019-01-10T06:52:38.323Z,998.60
2019-01-10T06:53:38.306Z,998.58
2019-01-10T06:54:38.295Z,998.60
2019-01-10T06:55:38.283Z,998.61
2019-01-10T06:56:38.274Z,998.61
2019-01-10T06:57:38.262Z,998.65
2019-01-10T06:58:38.251Z,998.64
2019-01-10T06:59:38.239Z,998.62
2019-01-10T07:00:38.229Z,998.62
2019-01-10T07:01:38.222Z,998.63
2019-01-10T07:02:38.209Z,998.68
2019-01-10T07:03:38.196Z,998.71
2019-01-10T07:04:38.190Z,998.73
2019-01-10T07:05:38.179Z,998.76
2019-01-10T07:06:38.168Z,998.74
2019-01-10T07:07:38.154Z,998.77
2019-01-10T07:08:38.148Z,998.79
2019-01-10T07:09:38.138Z,998.79
2019-01-10T07:10:38.125Z,998.81
2019-01-10T07:11:38.112Z,998.86
2019-01-10T07:12:39.895Z,998.88
2019-01-10T07:13:38.092Z,998.86
2019-01-10T07:14:38.078Z,998.91
2019-01-10T07:15:39.285Z,998.82
2019-01-10T07:16:38.058Z,998.91
2019-01-10T07:17:38.052Z,998.87
2019-01-10T07:18:38.035Z,998.88
2019-01-10T07:19:38.029Z,998.87
2019-01-10T07:20:38.014Z,998.89
2019-01-10T07:21:38.007Z,998.92
2019-01-10T07:22:37.996Z,998.94
2019-01-10T07:23:38.052Z,998.94
2019-01-10T07:24:37.977Z,998.89
2019-01-10T07:25:37.966Z,998.88
2019-01-10T07:26:37.951Z,998.92
2019-01-10T07:27:37.939Z,998.94
2019-01-10T07:28:37.927Z,998.89
2019-01-10T07:29:37.919Z,998.93
2019-01-10T07:30:37.906Z,998.91
2019-01-10T07:31:37.898Z,998.95
2019-01-10T07:32:37.885Z,998.93
2019-01-10T07:33:37.878Z,998.97
2019-01-10T07:34:37.869Z,999.00
2019-01-10T07:35:37.857Z,999.00
2019-01-10T07:36:37.842Z,998.98
2019-01-10T07:37:37.839Z,999.03
2019-01-10T07:38:37.878Z,999.03
2019-01-10T07:39:37.811Z,999.04
2019-01-10T07:40:37.802Z,999.07
2019-01-10T07:41:37.789Z,999.07
2019-01-10T07:42:37.781Z,999.08
2019-01-10T07:43:37.772Z,999.09
2019-01-10T07:44:37.758Z,999.12
2019-01-10T07:45:37.748Z,999.12
2019-01-10T07:46:37.733Z,999.12
2019-01-10T07:47:37.724Z,999.13
2019-01-10T07:48:37.718Z,999.19
2019-01-10T07:49:37.703Z,999.16
2019-01-10T07:50:37.693Z,999.23
2019-01-10T07:51:37.697Z,999.28
2019-01-10T07:52:37.672Z,999.25
2019-01-10T07:53:37.661Z,999.26
2019-01-10T07:54:37.650Z,999.26
2019-01-10T07:55:37.638Z,999.29
2019-01-10T07:56:37.633Z,999.29
2019-01-10T07:57:38.497Z,999.32
2019-01-10T07:58:37.608Z,999.30
2019-01-10T07:59:37.596Z,999.31
2019-01-10T08:00:37.590Z,999.32
2019-01-10T08:01:37.578Z,999.32
2019-01-10T08:02:37.564Z,999.36
2019-01-10T08:03:37.553Z,999.42
2019-01-10T08:04:37.541Z,999.41
2019-01-10T08:05:37.535Z,999.44
2019-01-10T08:06:37.520Z,999.44
2019-01-10T08:07:37.510Z,999.42
2019-01-10T08:08:37.502Z,999.46
2019-01-10T08:09:37.488Z,999.44
2019-01-10T08:10:37.479Z,999.48
2019-01-10T08:11:37.466Z,999.47
2019-01-10T08:12:37.459Z,999.48
2019-01-10T08:13:37.446Z,999.49
2019-01-10T08:14:37.438Z,999.52
2019-01-10T08:15:37.423Z,999.47
2019-01-10T08:16:37.415Z,999.51
2019-01-10T08:17:37.402Z,999.51
2019-01-10T08:18:37.392Z,999.51
2019-01-10T08:19:37.386Z,999.53
2019-01-10T08:20:37.373Z,999.54
2019-01-10T08:21:37.362Z,999.54
2019-01-10T08:22:37.349Z,999.49
2019-01-10T08:23:37.339Z,999.49
2019-01-10T08:24:37.329Z,999.54
2019-01-10T08:25:37.317Z,999.54
2019-01-10T08:26:37.307Z,999.56
2019-01-10T08:27:37.295Z,999.59
2019-01-10T08:28:37.286Z,999.58
2019-01-10T08:29:37.278Z,999.60
2019-01-10T08:30:37.264Z,999.65
2019-01-10T08:31:37.255Z,999.65
2019-01-10T08:32:37.244Z,999.64
2019-01-10T08:33:37.235Z,999.67
2019-01-10T08:34:37.220Z,999.67
2019-01-10T08:35:37.211Z,999.64
2019-01-10T08:36:37.201Z,999.64
2019-01-10T08:37:37.191Z,999.64
2019-01-10T08:38:37.181Z,999.67
2019-01-10T08:39:37.167Z,999.69
2019-01-10T08:40:37.158Z,999.73
2019-01-10T08:41:37.144Z,999.75
2019-01-10T08:42:37.141Z,999.73
2019-01-10T08:43:37.124Z,999.75
2019-01-10T08:44:37.164Z,999.79
2019-01-10T08:45:37.103Z,999.83
2019-01-10T08:46:37.093Z,999.81
2019-01-10T08:47:37.083Z,999.78
2019-01-10T08:48:37.073Z,999.79
2019-01-10T08:49:37.061Z,999.79
2019-01-10T08:50:37.050Z,999.80
2019-01-10T08:51:38.208Z,999.83
2019-01-10T08:52:37.029Z,999.85
2019-01-10T08:53:37.017Z,999.81
2019-01-10T08:54:37.006Z,999.86
2019-01-10T08:55:36.996Z,999.87
2019-01-10T08:56:36.985Z,999.86
2019-01-10T08:57:36.981Z,999.90
2019-01-10T08:58:36.963Z,999.96
2019-01-10T08:59:36.952Z,1000.01
2019-01-10T09:00:36.947Z,999.90
2019-01-10T09:01:36.932Z,999.96
2019-01-10T09:02:36.921Z,999.97
2019-01-10T09:03:36.910Z,999.99
2019-01-10T09:04:36.903Z,999.94
2019-01-10T09:05:36.890Z,999.95
2019-01-10T09:06:36.878Z,1000.01
2019-01-10T09:07:36.868Z,1000.01
2019-01-10T09:08:36.860Z,1000.00
2019-01-10T09:09:36.848Z,999.95
2019-01-10T09:10:36.835Z,1000.02
2019-01-10T09:11:36.823Z,1000.02
2019-01-10T09:12:36.813Z,1000.04
2019-01-10T09:13:36.805Z,1000.06
2019-01-10T09:14:36.795Z,999.98
2019-01-10T09:15:36.782Z,1000.07
2019-01-10T09:16:36.772Z,1000.09
2019-01-10T09:17:36.760Z,1000.07
2019-01-10T09:18:36.750Z,1000.09
2019-01-10T09:19:36.738Z,1000.07
2019-01-10T09:20:36.727Z,1000.15
2019-01-10T09:21:36.719Z,1000.14
2019-01-10T09:22:36.710Z,1000.13
2019-01-10T09:23:36.702Z,1000.10
2019-01-10T09:24:36.689Z,1000.13
2019-01-10T09:25:36.681Z,1000.11
2019-01-10T09:26:37.674Z,1000.16
2019-01-10T09:27:36.653Z,1000.15
2019-01-10T09:28:36.641Z,1000.13
2019-01-10T09:29:36.639Z,1000.18
2019-01-10T09:30:38.594Z,1000.12
2019-01-10T09:31:36.615Z,1000.17
2019-01-10T09:32:36.598Z,1000.16
2019-01-10T09:33:39.573Z,1000.18
2019-01-10T09:34:36.578Z,1000.22
2019-01-10T09:35:36.566Z,1000.21
2019-01-10T09:36:36.555Z,1000.21
2019-01-10T09:37:36.553Z,1000.20
2019-01-10T09:38:36.535Z,1000.24
2019-01-10T09:39:36.522Z,1000.28
2019-01-10T09:40:36.520Z,1000.21
2019-01-10T09:41:36.504Z,1000.24
2019-01-10T09:42:36.495Z,1000.24
2019-01-10T09:43:36.481Z,1000.30
2019-01-10T09:44:36.471Z,1000.31
2019-01-10T09:45:43.038Z,1000.29
2019-01-10T09:46:36.456Z,1000.32
2019-01-10T09:47:36.437Z,1000.30
2019-01-10T09:48:36.429Z,1000.35
2019-01-10T09:49:36.420Z,1000.35
2019-01-10T09:50:36.407Z,1000.33
2019-01-10T09:51:36.394Z,1000.37
2019-01-10T09:52:36.384Z,1000.38
2019-01-10T09:53:36.369Z,1000.39
2019-01-10T09:54:36.361Z,1000.39
2019-01-10T09:55:36.355Z,1000.39
2019-01-10T09:56:36.342Z,1000.41
2019-01-10T09:57:36.333Z,1000.41
2019-01-10T09:58:36.320Z,1000.43
2019-01-10T09:59:36.312Z,1000.42
2019-01-10T10:00:36.298Z,1000.42
2019-01-10T10:01:36.290Z,1000.40
2019-01-10T10:02:36.278Z,1000.42
2019-01-10T10:03:36.267Z,1000.42
2019-01-10T10:04:36.257Z,1000.45
2019-01-10T10:05:36.247Z,1000.47
2019-01-10T10:06:36.234Z,1000.45
2019-01-10T10:07:36.224Z,1000.51
2019-01-10T10:08:36.213Z,1000.53
2019-01-10T10:09:36.208Z,1000.48
2019-01-10T10:10:36.192Z,1000.50
2019-01-10T10:11:36.185Z,1000.52
2019-01-10T10:12:36.172Z,1000.46
2019-01-10T10:13:36.160Z,1000.53
2019-01-10T10:14:36.159Z,1000.55
2019-01-10T10:15:36.138Z,1000.54
2019-01-10T10:16:36.128Z,1000.57
2019-01-10T10:17:36.116Z,1000.60
2019-01-10T10:18:36.109Z,1000.59
2019-01-10T10:19:36.098Z,1000.61
2019-01-10T10:20:36.084Z,1000.61
2019-01-10T10:21:36.071Z,1000.61
2019-01-10T10:22:36.064Z,1000.60
2019-01-10T10:23:36.051Z,1000.60
2019-01-10T10:24:36.042Z,1000.60
2019-01-10T10:25:36.031Z,1000.64
2019-01-10T10:26:36.019Z,1000.66
2019-01-10T10:27:36.009Z,1000.60
2019-01-10T10:28:36.004Z,1000.63
2019-01-10T10:29:35.991Z,1000.66
2019-01-10T10:30:35.975Z,1000.66
2019-01-10T10:31:35.966Z,1000.70
2019-01-10T10:32:35.960Z,1000.72
2019-01-10T10:33:35.949Z,1000.74
2019-01-10T10:34:35.935Z,1000.70
2019-01-10T10:35:35.922Z,1000.69
2019-01-10T10:36:35.912Z,1000.63
2019-01-10T10:37:35.904Z,1000.68
2019-01-10T10:38:35.891Z,1000.67
2019-01-10T10:39:35.885Z,1000.68
2019-01-10T10:40:35.870Z,1000.73
2019-01-10T10:41:35.865Z,1000.71
2019-01-10T10:42:35.848Z,1000.70
2019-01-10T10:43:35.842Z,1000.70
2019-01-10T10:44:35.827Z,1000.70
2019-01-10T10:45:35.820Z,1000.70
2019-01-10T10:46:35.806Z,1000.68
2019-01-10T10:47:35.797Z,1000.70
2019-01-10T10:48:35.784Z,1000.72
2019-01-10T10:49:35.771Z,1000.72
2019-01-10T10:50:35.764Z,1000.70
2019-01-10T10:51:35.757Z,1000.71
2019-01-10T10:52:35.740Z,1000.69
2019-01-10T10:53:35.731Z,1000.73
2019-01-10T10:54:35.718Z,1000.69
2019-01-10T10:55:35.717Z,1000.63
2019-01-10T10:56:35.700Z,1000.64
2019-01-10T10:57:35.682Z,1000.65
2019-01-10T10:58:35.677Z,1000.66
2019-01-10T10:59:35.666Z,1000.64
2019-01-10T11:00:35.655Z,1000.63
2019-01-10T11:01:35.660Z,1000.63
2019-01-10T11:02:35.634Z,1000.63
2019-01-10T11:03:35.622Z,1000.60
2019-01-10T11:04:35.615Z,1000.60
2019-01-10T11:05:35.609Z,1000.62
2019-01-10T11:06:35.593Z,1000.61
2019-01-10T11:07:35.583Z,1000.60
2019-01-10T11:08:35.573Z,1000.61
2019-01-10T11:09:35.560Z,1000.60
2019-01-10T11:10:35.550Z,1000.56
2019-01-10T11:11:35.538Z,1000.57
2019-01-10T11:12:35.526Z,1000.60
2019-01-10T11:13:35.516Z,1000.58
2019-01-10T11:14:35.507Z,1000.58
2019-01-10T11:15:35.498Z,1000.57
2019-01-10T11:16:35.481Z,1000.58
2019-01-10T11:17:35.473Z,1000.58
2019-01-10T11:18:35.470Z,1000.61
2019-01-10T11:19:35.450Z,1000.58
2019-01-10T11:20:35.447Z,1000.56
2019-01-10T11:21:35.432Z,1000.58
2019-01-10T11:22:35.422Z,1000.58
2019-01-10T11:23:35.409Z,1000.54
2019-01-10T11:24:35.391Z,1000.56
2019-01-10T11:25:35.388Z,1000.55
2019-01-10T11:26:35.377Z,1000.51
2019-01-10T11:27:35.411Z,1000.54
2019-01-10T11:28:35.355Z,1000.54
2019-01-10T11:29:35.344Z,1000.49
2019-01-10T11:30:35.333Z,1000.53
2019-01-10T11:31:35.325Z,1000.50
2019-01-10T11:32:35.311Z,1000.56
2019-01-10T11:33:35.301Z,1000.58
2019-01-10T11:34:35.293Z,1000.56
2019-01-10T11:35:35.279Z,1000.54
2019-01-10T11:36:35.272Z,1000.53
2019-01-10T11:37:35.261Z,1000.54
2019-01-10T11:38:35.249Z,1000.51
2019-01-10T11:39:35.237Z,1000.47
2019-01-10T11:40:35.227Z,1000.50
2019-01-10T11:41:35.215Z,1000.43
2019-01-10T11:42:35.205Z,1000.47
2019-01-10T11:43:35.197Z,1000.46
2019-01-10T11:44:35.188Z,1000.45
2019-01-10T11:45:35.177Z,1000.44
2019-01-10T11:46:35.164Z,1000.41
2019-01-10T11:47:35.152Z,1000.46
2019-01-10T11:48:35.140Z,1000.43
2019-01-10T11:49:35.131Z,1000.48
2019-01-10T11:50:35.124Z,1000.50
2019-01-10T11:51:35.110Z,1000.39
2019-01-10T11:52:35.097Z,1000.42
2019-01-10T11:53:35.572Z,1000.40
2019-01-10T11:54:35.087Z,1000.41
2019-01-10T11:55:35.066Z,1000.45
2019-01-10T11:56:35.054Z,1000.43
2019-01-10T11:57:35.044Z,1000.38
2019-01-10T11:58:35.033Z,1000.42
2019-01-10T11:59:35.027Z,1000.39
2019-01-10T12:00:35.015Z,1000.44
2019-01-10T12:01:35.002Z,1000.49
2019-01-10T12:02:36.472Z,1000.43
2019-01-10T12:03:35.070Z,1000.41
2019-01-10T12:04:34.985Z,1000.46
2019-01-10T12:05:34.959Z,1000.48
2019-01-10T12:06:34.947Z,1000.46
2019-01-10T12:07:34.938Z,1000.45
2019-01-10T12:08:34.928Z,1000.39
2019-01-10T12:09:34.918Z,1000.42
2019-01-10T12:10:34.907Z,1000.38
2019-01-10T12:11:34.891Z,1000.45
2019-01-10T12:12:34.883Z,1000.36
2019-01-10T12:13:34.880Z,1000.42
2019-01-10T12:14:34.861Z,1000.38
2019-01-10T12:15:34.854Z,1000.40
2019-01-10T12:16:34.842Z,1000.37
2019-01-10T12:17:34.838Z,1000.39
2019-01-10T12:18:34.819Z,1000.38
2019-01-10T12:19:34.805Z,1000.34
2019-01-10T12:20:34.798Z,1000.36
2019-01-10T12:21:34.786Z,1000.36
2019-01-10T12:22:34.778Z,1000.41